createdAt,value
2022-08-01T00:02:32.973Z,13.83
2022-08-01T00:05:19.284Z,13.77
2022-08-01T00:08:06.095Z,14.13
2022-08-01T00:10:52.291Z,13.67
2022-08-01T00:13:38.405Z,14.47
2022-08-01T00:16:26.219Z,13.50
2022-08-01T00:19:12.517Z,13.90
2022-08-01T00:21:58.886Z,13.93
2022-08-01T00:24:44.996Z,13.33
2022-08-01T00:27:32.467Z,13.20
2022-08-01T00:30:24.059Z,13.00
2022-08-01T00:33:11.426Z,13.00
2022-08-01T00:35:58.148Z,12.97
2022-08-01T00:38:44.686Z,13.17
2022-08-01T00:41:30.848Z,13.10
2022-08-01T00:44:17.198Z,12.53
2022-08-01T00:47:04.435Z,13.53
2022-08-01T00:49:52.404Z,12.63
2022-08-01T00:52:39.032Z,12.63
2022-08-01T00:55:25.967Z,13.77
2022-08-01T00:58:12.591Z,13.40
2022-08-01T01:00:59.047Z,12.47
2022-08-01T01:03:59.436Z,12.77
2022-08-01T01:06:53.590Z,13.43
2022-08-01T01:09:47.850Z,12.37
2022-08-01T01:12:40.526Z,12.67
2022-08-01T01:15:32.679Z,13.50
2022-08-01T01:18:24.274Z,12.30
2022-08-01T01:21:32.958Z,14.20
2022-08-01T01:24:27.590Z,12.53
2022-08-01T01:27:23.349Z,12.80
2022-08-01T01:30:11.615Z,13.43
2022-08-01T01:33:02.145Z,13.80
2022-08-01T01:35:54.268Z,14.27
2022-08-01T01:38:43.926Z,13.07
2022-08-01T01:41:32.061Z,14.17
2022-08-01T01:44:20.061Z,13.93
2022-08-01T01:47:08.931Z,13.70
2022-08-01T01:49:57.424Z,13.07
2022-08-01T01:52:46.141Z,13.17
2022-08-01T01:55:33.323Z,13.23
2022-08-01T01:58:38.514Z,12.50
2022-08-01T02:02:08.827Z,13.43
2022-08-01T02:04:38.440Z,13.30
2022-08-01T02:07:26.855Z,12.20
2022-08-01T02:10:14.491Z,13.40
2022-08-01T02:13:05.170Z,13.30
2022-08-01T02:15:59.524Z,13.53
2022-08-01T02:18:46.841Z,12.27
2022-08-01T02:21:50.333Z,11.87
2022-08-01T02:24:39.819Z,11.10
2022-08-01T02:27:29.712Z,11.80
2022-08-01T02:30:17.221Z,10.83
2022-08-01T02:33:09.875Z,11.07
2022-08-01T02:36:30.376Z,10.80
2022-08-01T02:39:15.576Z,9.57
2022-08-01T02:42:07.664Z,10.00
2022-08-01T02:44:56.054Z,9.80
2022-08-01T02:47:44.904Z,9.10
2022-08-01T02:50:33.476Z,9.67
2022-08-01T02:53:22.781Z,9.40
2022-08-01T02:56:35.559Z,9.70
2022-08-01T02:59:26.407Z,9.03
2022-08-01T03:02:14.462Z,9.73
2022-08-01T03:05:02.781Z,8.73
2022-08-01T03:07:49.947Z,9.20
2022-08-01T03:10:38.971Z,9.10
2022-08-01T03:13:27.907Z,8.00
2022-08-01T03:16:15.426Z,8.30
2022-08-01T03:19:03.817Z,8.40
2022-08-01T03:21:51.683Z,8.33
2022-08-01T03:24:41.181Z,8.47
2022-08-01T03:27:27.709Z,7.77
2022-08-01T03:30:16.395Z,8.33
2022-08-01T03:33:04.486Z,7.77
2022-08-01T03:35:54.683Z,8.70
2022-08-01T03:38:42.385Z,7.97
2022-08-01T03:41:34.310Z,8.30
2022-08-01T03:44:29.661Z,8.50
2022-08-01T03:47:19.554Z,7.60
2022-08-01T03:50:12.599Z,7.37
2022-08-01T03:53:02.182Z,7.87
2022-08-01T03:55:49.190Z,8.20
2022-08-01T03:58:35.809Z,7.90
2022-08-01T04:01:22.239Z,8.60
2022-08-01T04:04:10.012Z,7.87
2022-08-01T04:06:56.130Z,8.17
2022-08-01T04:09:43.411Z,7.93
2022-08-01T04:12:29.631Z,7.63
2022-08-01T04:15:16.222Z,7.33
2022-08-01T04:18:02.589Z,8.93
2022-08-01T04:20:50.438Z,8.00
2022-08-01T04:23:37.575Z,8.20
2022-08-01T04:26:25.212Z,7.70
2022-08-01T04:29:13.806Z,7.30
2022-08-01T04:32:01.863Z,8.40
2022-08-01T04:34:50.176Z,7.73
2022-08-01T04:37:39.082Z,8.07
2022-08-01T04:40:28.026Z,7.67
2022-08-01T04:43:15.195Z,8.37
2022-08-01T04:46:04.690Z,7.37
2022-08-01T04:48:51.652Z,7.77
2022-08-01T04:51:37.795Z,7.30
2022-08-01T04:54:25.844Z,7.33
2022-08-01T04:57:12.026Z,7.70
2022-08-01T04:59:58.694Z,7.37
2022-08-01T05:02:44.972Z,7.70
2022-08-01T05:05:31.703Z,7.80
2022-08-01T05:08:18.302Z,7.80
2022-08-01T05:11:06.058Z,7.97
2022-08-01T05:13:52.389Z,8.43
2022-08-01T05:16:38.609Z,7.77
2022-08-01T05:19:25.088Z,7.23
2022-08-01T05:22:12.087Z,7.93
2022-08-01T05:24:58.556Z,8.20
2022-08-01T05:27:47.179Z,8.27
2022-08-01T05:30:35.298Z,7.63
2022-08-01T05:33:22.407Z,8.30
2022-08-01T05:36:08.939Z,8.10
2022-08-01T05:38:55.537Z,8.70
2022-08-01T05:41:42.166Z,8.20
2022-08-01T05:44:30.661Z,8.13
2022-08-01T05:47:16.959Z,9.40
2022-08-01T05:50:03.089Z,8.67
2022-08-01T05:52:49.505Z,8.97
2022-08-01T05:55:36.709Z,8.40
2022-08-01T05:58:22.821Z,7.90
2022-08-01T06:01:10.303Z,7.60
2022-08-01T06:03:56.723Z,7.40
2022-08-01T06:06:42.794Z,6.77
2022-08-01T06:09:29.907Z,6.80
2022-08-01T06:12:16.408Z,6.83
2022-08-01T06:15:02.789Z,6.20
2022-08-01T06:17:50.433Z,6.77
2022-08-01T06:20:36.650Z,6.53
2022-08-01T06:23:31.772Z,5.33
2022-08-01T06:26:19.750Z,6.73
2022-08-01T06:29:05.954Z,6.60
2022-08-01T06:31:52.394Z,6.63
2022-08-01T06:34:40.117Z,6.83
2022-08-01T06:37:30.293Z,6.80
2022-08-01T06:40:17.552Z,7.47
2022-08-01T06:43:04.082Z,7.63
2022-08-01T06:45:50.716Z,8.10
2022-08-01T06:48:40.146Z,8.73
2022-08-01T06:51:27.694Z,7.67
2022-08-01T06:54:13.870Z,7.70
2022-08-01T06:57:00.009Z,7.80
2022-08-01T06:59:52.004Z,8.10
2022-08-01T07:02:41.948Z,7.33
2022-08-01T07:05:28.584Z,7.60
2022-08-01T07:08:16.501Z,7.07
2022-08-01T07:11:02.818Z,7.13
2022-08-01T07:13:49.035Z,6.43
2022-08-01T07:16:35.244Z,6.60
2022-08-01T07:19:21.417Z,6.80
2022-08-01T07:22:08.057Z,6.80
2022-08-01T07:24:58.543Z,7.23
2022-08-01T07:27:45.505Z,6.70
2022-08-01T07:30:32.416Z,6.90
2022-08-01T07:33:18.700Z,6.67
2022-08-01T07:36:05.709Z,6.53
2022-08-01T07:38:55.447Z,6.13
2022-08-01T07:41:52.964Z,5.87
2022-08-01T07:44:48.940Z,5.70
2022-08-01T07:47:35.075Z,5.60
2022-08-01T07:50:21.629Z,5.10
2022-08-01T07:53:07.913Z,5.00
2022-08-01T07:55:55.155Z,4.77
2022-08-01T07:58:43.059Z,4.83
2022-08-01T08:01:29.506Z,5.17
2022-08-01T08:04:15.609Z,4.20
2022-08-01T08:07:02.087Z,4.40
2022-08-01T08:09:51.306Z,4.40
2022-08-01T08:12:37.873Z,4.43
2022-08-01T08:15:25.588Z,4.20
2022-08-01T08:18:11.642Z,4.20
2022-08-01T08:20:57.888Z,4.00
2022-08-01T08:24:02.028Z,4.40
2022-08-01T08:26:48.770Z,3.80
2022-08-01T08:29:38.875Z,3.30
2022-08-01T08:32:26.671Z,2.63
2022-08-01T08:35:17.240Z,2.00
2022-08-01T08:38:09.799Z,2.00
2022-08-01T08:40:58.707Z,2.00
2022-08-01T08:43:45.365Z,2.27
2022-08-01T08:46:34.571Z,2.10
2022-08-01T08:49:27.403Z,1.90
2022-08-01T08:52:23.621Z,1.70
2022-08-01T08:55:10.909Z,2.10
2022-08-01T08:57:58.492Z,2.03
2022-08-01T09:00:45.054Z,2.40
2022-08-01T09:03:35.091Z,2.10
2022-08-01T09:06:23.032Z,0.97
2022-08-01T09:09:10.563Z,0.90
2022-08-01T09:11:58.201Z,0.93
2022-08-01T09:14:48.737Z,0.80
2022-08-01T09:17:42.468Z,0.80
2022-08-01T09:20:31.783Z,0.70
2022-08-01T09:26:12.565Z,0.70
2022-08-01T09:29:00.210Z,0.60
2022-08-01T09:31:48.004Z,0.97
2022-08-01T09:34:34.838Z,0.80
2022-08-01T09:37:37.531Z,0.83
2022-08-01T09:40:23.902Z,0.73
2022-08-01T09:43:15.271Z,0.80
2022-08-01T09:46:07.308Z,2.00
2022-08-01T09:49:00.504Z,2.30
2022-08-01T09:52:00.294Z,0.90
2022-08-01T09:54:56.172Z,0.90
2022-08-01T09:57:43.061Z,0.70
2022-08-01T10:00:45.012Z,0.90
2022-08-01T10:03:31.597Z,0.93
2022-08-01T10:06:24.988Z,0.80
2022-08-01T10:09:12.382Z,0.87
2022-08-01T10:12:01.461Z,0.90
2022-08-01T10:14:50.520Z,0.90
2022-08-01T10:17:50.632Z,0.90
2022-08-01T10:20:38.660Z,1.00
2022-08-01T10:23:40.487Z,1.00
2022-08-01T10:26:28.808Z,1.20
2022-08-01T10:29:45.071Z,0.90
2022-08-01T10:32:28.918Z,1.00
2022-08-01T10:35:18.230Z,1.00
2022-08-01T10:38:25.225Z,0.90
2022-08-01T10:41:12.035Z,0.90
2022-08-01T10:43:59.991Z,0.70
2022-08-01T10:46:50.703Z,1.00
2022-08-01T10:49:45.124Z,0.90
2022-08-01T10:52:35.442Z,0.87
2022-08-01T10:55:26.836Z,1.00
2022-08-01T10:58:15.882Z,1.20
2022-08-01T11:01:28.879Z,1.10
2022-08-01T11:04:17.771Z,0.90
2022-08-01T11:07:07.245Z,1.00
2022-08-01T11:10:14.622Z,1.00
2022-08-01T11:13:04.399Z,1.07
2022-08-01T11:15:50.991Z,1.07
2022-08-01T11:18:38.037Z,1.00
2022-08-01T11:22:03.380Z,0.93
2022-08-01T11:25:00.242Z,1.30
2022-08-01T11:27:49.804Z,1.20
2022-08-01T11:30:36.016Z,1.00
2022-08-01T11:33:50.568Z,1.10
2022-08-01T11:39:44.268Z,1.20
2022-08-01T11:42:30.576Z,1.20
2022-08-01T11:45:18.834Z,1.33
2022-08-01T11:48:19.944Z,1.10
2022-08-01T11:51:23.924Z,1.20
2022-08-01T11:54:12.248Z,1.10
2022-08-01T11:57:00.103Z,1.53
2022-08-01T11:59:50.078Z,1.60
2022-08-01T12:02:59.973Z,1.57
2022-08-01T12:05:46.737Z,1.70
2022-08-01T12:08:35.672Z,1.40
2022-08-01T12:11:22.213Z,1.30
2022-08-01T12:14:09.960Z,1.37
2022-08-01T12:16:56.517Z,1.40
2022-08-01T12:19:44.079Z,1.50
2022-08-01T12:22:30.504Z,1.40
2022-08-01T12:25:17.960Z,1.87
2022-08-01T12:28:05.982Z,1.70
2022-08-01T12:30:52.644Z,1.60
2022-08-01T12:33:38.910Z,1.60
2022-08-01T12:36:30.766Z,1.70
2022-08-01T12:39:16.941Z,1.60
2022-08-01T12:42:03.530Z,1.80
2022-08-01T12:44:52.068Z,1.50
2022-08-01T12:47:39.065Z,1.43
2022-08-01T12:50:29.266Z,1.67
2022-08-01T12:53:19.463Z,1.70
2022-08-01T12:56:08.562Z,1.67
2022-08-01T12:58:55.680Z,1.67
2022-08-01T13:01:42.892Z,1.70
2022-08-01T13:04:29.653Z,1.50
2022-08-01T13:07:15.927Z,1.70
2022-08-01T13:10:03.627Z,1.67
2022-08-01T13:12:54.877Z,1.77
2022-08-01T13:15:44.552Z,1.80
2022-08-01T13:18:33.287Z,1.77
2022-08-01T13:21:21.148Z,1.40
2022-08-01T13:24:10.741Z,1.70
2022-08-01T13:27:00.847Z,1.80
2022-08-01T13:29:50.669Z,1.83
2022-08-01T13:32:37.362Z,2.20
2022-08-01T13:35:23.653Z,2.20
2022-08-01T13:38:09.829Z,1.97
2022-08-01T13:41:00.144Z,2.10
2022-08-01T13:43:58.980Z,2.20
2022-08-01T13:46:49.664Z,2.23
2022-08-01T13:49:38.328Z,1.90
2022-08-01T13:52:27.261Z,2.20
2022-08-01T13:55:13.703Z,2.10
2022-08-01T13:58:00.212Z,2.80
2022-08-01T14:00:47.987Z,2.57
2022-08-01T14:03:34.133Z,2.15
2022-08-01T14:06:22.459Z,2.35
2022-08-01T14:09:17.472Z,2.25
2022-08-01T14:12:05.278Z,2.03
2022-08-01T14:14:54.289Z,2.47
2022-08-01T14:17:47.887Z,2.13
2022-08-01T14:20:35.450Z,2.30
2022-08-01T14:23:21.985Z,2.40
2022-08-01T14:26:12.356Z,1.98
2022-08-01T14:28:59.006Z,2.13
2022-08-01T14:31:45.146Z,2.17
2022-08-01T14:34:32.962Z,2.03
2022-08-01T14:37:19.090Z,2.70
2022-08-01T14:40:10.140Z,2.07
2022-08-01T14:42:56.391Z,2.43
2022-08-01T14:45:42.870Z,2.30
2022-08-01T14:48:30.121Z,2.38
2022-08-01T14:51:17.958Z,2.13
2022-08-01T14:54:04.322Z,2.20
2022-08-01T14:56:52.639Z,2.00
2022-08-01T14:59:38.837Z,2.03
2022-08-01T15:02:27.656Z,2.10
2022-08-01T15:05:13.941Z,1.92
2022-08-01T15:08:01.603Z,2.15
2022-08-01T15:10:47.977Z,1.80
2022-08-01T15:13:36.280Z,1.85
2022-08-01T15:16:25.759Z,1.98
2022-08-01T15:19:12.711Z,1.95
2022-08-01T15:22:03.413Z,1.90
2022-08-01T15:24:56.814Z,2.22
2022-08-01T15:27:44.021Z,2.08
2022-08-01T15:30:30.474Z,2.05
2022-08-01T15:33:17.678Z,2.03
2022-08-01T15:36:03.882Z,2.10
2022-08-01T15:38:50.313Z,2.25
2022-08-01T15:41:38.179Z,2.10
2022-08-01T15:44:24.449Z,2.05
2022-08-01T15:47:11.215Z,1.90
2022-08-01T15:50:00.370Z,1.92
2022-08-01T15:52:46.422Z,2.25
2022-08-01T15:55:33.203Z,2.03
2022-08-01T15:58:21.783Z,1.67
2022-08-01T16:01:08.131Z,2.17
2022-08-01T16:03:54.494Z,1.90
2022-08-01T16:06:40.920Z,1.90
2022-08-01T16:09:29.916Z,2.00
2022-08-01T16:12:15.855Z,2.30
2022-08-01T16:15:03.781Z,1.88
2022-08-01T16:17:50.084Z,2.22
2022-08-01T16:20:42.790Z,2.38
2022-08-01T16:23:31.388Z,2.10
2022-08-01T16:26:27.053Z,2.20
2022-08-01T16:29:14.216Z,2.00
2022-08-01T16:32:12.846Z,2.20
2022-08-01T16:35:09.374Z,2.70
2022-08-01T16:37:55.845Z,3.40
2022-08-01T16:40:47.337Z,2.07
2022-08-01T16:43:36.031Z,2.40
2022-08-01T16:46:23.859Z,2.13
2022-08-01T16:49:12.800Z,2.10
2022-08-01T16:51:58.882Z,2.13
2022-08-01T16:54:44.997Z,4.47
2022-08-01T16:57:36.802Z,2.60
2022-08-01T17:00:26.006Z,2.57
2022-08-01T17:03:17.755Z,2.27
2022-08-01T17:06:22.719Z,2.20
2022-08-01T17:09:09.352Z,2.40
2022-08-01T17:11:55.879Z,2.20
2022-08-01T17:14:42.326Z,2.00
2022-08-01T17:17:29.648Z,2.10
2022-08-01T17:20:15.699Z,2.20
2022-08-01T17:23:03.275Z,2.03
2022-08-01T17:25:49.383Z,2.33
2022-08-01T17:28:35.535Z,2.00
2022-08-01T17:31:21.961Z,2.10
2022-08-01T17:34:08.070Z,2.27
2022-08-01T17:36:54.554Z,2.00
2022-08-01T17:39:42.062Z,2.27
2022-08-01T17:42:30.054Z,2.30
2022-08-01T17:45:27.496Z,2.33
2022-08-01T17:48:17.000Z,2.30
2022-08-01T17:51:03.208Z,2.47
2022-08-01T17:53:55.796Z,2.40
2022-08-01T17:56:46.073Z,2.00
2022-08-01T17:59:32.799Z,2.10
2022-08-01T18:02:19.045Z,2.33
2022-08-01T18:05:09.511Z,2.60
2022-08-01T18:08:00.653Z,2.20
2022-08-01T18:10:48.753Z,2.30
2022-08-01T18:13:36.629Z,2.10
2022-08-01T18:16:28.231Z,2.60
2022-08-01T18:19:14.849Z,2.47
2022-08-01T18:22:01.224Z,2.30
2022-08-01T18:24:47.522Z,2.30
2022-08-01T18:28:22.644Z,2.30
2022-08-01T18:30:41.811Z,2.60
2022-08-01T18:33:28.088Z,2.50
2022-08-01T18:36:30.704Z,2.50
2022-08-01T18:39:19.874Z,2.40
2022-08-01T18:42:06.605Z,2.43
2022-08-01T18:44:53.010Z,2.60
2022-08-01T18:47:41.007Z,2.57
2022-08-01T18:50:27.647Z,2.60
2022-08-01T18:53:13.747Z,2.40
2022-08-01T18:56:00.184Z,2.77
2022-08-01T18:58:46.255Z,2.70
2022-08-01T19:01:32.731Z,2.53
2022-08-01T19:04:21.610Z,2.80
2022-08-01T19:07:08.480Z,2.97
2022-08-01T19:09:55.304Z,2.77
2022-08-01T19:12:42.336Z,2.80
2022-08-01T19:15:28.523Z,2.37
2022-08-01T19:18:15.664Z,2.80
2022-08-01T19:21:04.411Z,2.57
2022-08-01T19:24:08.600Z,2.70
2022-08-01T19:26:56.756Z,3.00
2022-08-01T19:29:43.361Z,2.90
2022-08-01T19:32:32.805Z,2.70
2022-08-01T19:35:19.711Z,3.17
2022-08-01T19:38:07.275Z,2.87
2022-08-01T19:40:54.062Z,2.60
2022-08-01T19:43:46.388Z,2.83
2022-08-01T19:46:33.045Z,2.57
2022-08-01T19:49:21.480Z,10.37
2022-08-01T19:52:08.648Z,3.33
2022-08-01T19:54:57.508Z,3.10
2022-08-01T19:57:47.440Z,3.43
2022-08-01T20:00:38.761Z,2.90
2022-08-01T20:03:28.097Z,2.80
2022-08-01T20:06:14.632Z,3.23
2022-08-01T20:09:00.762Z,2.73
2022-08-01T20:11:50.765Z,3.07
2022-08-01T20:14:36.960Z,3.00
2022-08-01T20:17:24.480Z,10.13
2022-08-01T20:20:11.679Z,2.97
2022-08-01T20:22:58.878Z,2.90
2022-08-01T20:25:48.188Z,2.47
2022-08-01T20:28:38.462Z,3.00
2022-08-01T20:31:28.872Z,3.10
2022-08-01T20:34:30.532Z,2.80
2022-08-01T20:37:19.557Z,2.70
2022-08-01T20:40:28.719Z,2.53
2022-08-01T20:43:15.612Z,3.17
2022-08-01T20:46:05.445Z,2.77
2022-08-01T20:48:54.192Z,3.03
2022-08-01T20:51:42.575Z,3.13
2022-08-01T20:54:29.423Z,3.90
2022-08-01T20:57:23.391Z,2.90
2022-08-01T21:00:10.903Z,2.90
2022-08-01T21:03:06.562Z,2.40
2022-08-01T21:05:59.147Z,3.00
2022-08-01T21:08:49.764Z,2.80
2022-08-01T21:11:43.443Z,2.50
2022-08-01T21:14:41.445Z,2.90
2022-08-01T21:17:38.400Z,3.37
2022-08-01T21:20:28.961Z,2.83
2022-08-01T21:23:21.557Z,3.00
2022-08-01T21:26:12.328Z,2.40
2022-08-01T21:29:02.439Z,2.90
2022-08-01T21:32:11.339Z,2.93
2022-08-01T21:35:00.433Z,2.87
2022-08-01T21:37:52.449Z,2.80
2022-08-01T21:40:41.775Z,2.80
2022-08-01T21:43:29.267Z,2.70
2022-08-01T21:46:17.936Z,2.60
2022-08-01T21:49:04.860Z,2.90
2022-08-01T21:51:58.436Z,3.10
2022-08-01T21:55:02.390Z,3.00
2022-08-01T21:58:20.416Z,3.13
2022-08-01T22:01:09.050Z,2.97
2022-08-01T22:03:59.904Z,2.63
2022-08-01T22:06:49.884Z,2.77
2022-08-01T22:09:39.240Z,2.70
2022-08-01T22:12:27.424Z,2.70
2022-08-01T22:15:14.610Z,2.77
2022-08-01T22:18:01.636Z,2.90
2022-08-01T22:20:48.230Z,2.73
2022-08-01T22:23:37.590Z,2.67
2022-08-01T22:26:28.949Z,2.77
2022-08-01T22:29:17.897Z,2.43
2022-08-01T22:32:04.398Z,2.67
2022-08-01T22:34:52.201Z,2.60
2022-08-01T22:37:56.357Z,2.60
2022-08-01T22:40:49.440Z,2.60
2022-08-01T22:43:41.042Z,2.70
2022-08-01T22:46:32.456Z,2.87
2022-08-01T22:49:27.300Z,2.90
2022-08-01T22:52:18.586Z,2.23
2022-08-01T22:55:08.264Z,2.33
2022-08-01T22:58:00.073Z,2.50
2022-08-01T23:00:49.510Z,2.70
2022-08-01T23:03:41.066Z,2.50
2022-08-01T23:06:35.171Z,2.70
2022-08-01T23:09:22.719Z,2.53
2022-08-01T23:12:27.488Z,2.10
2022-08-01T23:15:14.630Z,2.40
2022-08-01T23:18:04.603Z,2.70
2022-08-01T23:20:52.824Z,2.30
2022-08-01T23:23:40.493Z,2.40
2022-08-01T23:26:29.975Z,2.47
2022-08-01T23:29:16.129Z,2.60
2022-08-01T23:32:03.444Z,2.57
2022-08-01T23:34:50.493Z,2.60
2022-08-01T23:37:38.196Z,2.70
2022-08-01T23:40:24.823Z,2.53
2022-08-01T23:43:16.733Z,2.47
2022-08-01T23:46:05.478Z,2.50
2022-08-01T23:48:51.771Z,2.70
2022-08-01T23:51:38.189Z,2.17
2022-08-01T23:54:26.360Z,2.27
2022-08-01T23:57:13.455Z,2.67
